Dole Colombia — C6QZ5 — position and weather

sailwx.info

Track history (hours):
 
Tides and Currents Weather Stations Pressure Air Temp Water Temp Dewpoint Dewpoint Depression Visibility Wind Speed Wind Dir Waves Ship Positions

Dole Colombia

Last reported at 2014-Oct-20 20:32 UTC. Time now 2014-Oct-20 21:09 UTC.
Position N 39°43' W 075°31'.

Length 205 m; draft 9.7 m.

Type: Ship. MMSI: 309403000.

Date/timePositionNaut miles runAvg speedWind from/ knotsBaromVisibWave heightAir tempDewpointWater temp
2014-Oct-20 20:32N 39°43' W 075°31'0 0.0
2014-Oct-20 19:32N 39°43' W 075°31'0 0.0
2014-Oct-20 18:32N 39°43' W 075°31'0 0.0
2014-Oct-20 17:32N 39°43' W 075°31'0 0.0
2014-Oct-20 16:32N 39°43' W 075°31'0 0.0
2014-Oct-20 15:32N 39°43' W 075°31'0 0.0
2014-Oct-20 14:32N 39°43' W 075°31'0 0.0
2014-Oct-20 13:32N 39°43' W 075°31'0 0.0
2014-Oct-20 12:32N 39°43' W 075°31'0 0.0
2014-Oct-20 11:32N 39°43' W 075°31'0 0.0
2014-Oct-20 10:32N 39°43' W 075°31'0 0.0
2014-Oct-20 09:29N 39°43' W 075°31'0 0.0
2014-Oct-20 08:32N 39°43' W 075°31'0 0.0
2014-Oct-20 07:32N 39°43' W 075°31'0 0.0
2014-Oct-20 06:32N 39°43' W 075°31'0 0.0
2014-Oct-20 05:32N 39°43' W 075°31'0 0.0
2014-Oct-20 04:32N 39°43' W 075°31'0 0.0
2014-Oct-20 03:32N 39°43' W 075°31'0 0.0
2014-Oct-20 02:32N 39°43' W 075°31'0 0.0
2014-Oct-20 01:32N 39°43' W 075°31'0 0.0
2014-Oct-20 00:32N 39°43' W 075°31'0 0.0
2014-Oct-19 23:32N 39°43' W 075°31'0 0.0
2014-Oct-19 22:32N 39°43' W 075°31'0 0.0
2014-Oct-19 21:32N 39°43' W 075°31'0 0.0
2014-Oct-19 20:32N 39°43' W 075°31'0 0.0
2014-Oct-19 19:32N 39°43' W 075°31'0 0.0
2014-Oct-19 18:32N 39°43' W 075°31'0 0.0
2014-Oct-19 17:32N 39°43' W 075°31'0 0.0
2014-Oct-19 16:32N 39°43' W 075°31'0 0.0
2014-Oct-19 15:32N 39°43' W 075°31'0 0.0
2014-Oct-19 14:32N 39°43' W 075°31'0 0.0
2014-Oct-19 13:32N 39°43' W 075°31'0 0.0
2014-Oct-19 12:32N 39°43' W 075°31'0 0.0
2014-Oct-19 11:32N 39°43' W 075°31'0 0.0
2014-Oct-19 10:29N 39°43' W 075°31'0 0.0
2014-Oct-19 09:33N 39°43' W 075°31'7 7.0
2014-Oct-19 08:33N 39°37' W 075°35'1312.6
2014-Oct-19 07:33N 39°24' W 075°30'77116.8
2014-Oct-17 09:33N 27°03' W 079°45'2120.0
2014-Oct-17 08:30N 26°42' W 079°48'1819.4
2014-Oct-17 07:33N 26°25' W 079°55'1918.6
2014-Oct-17 06:33N 26°08' W 080°02'5 4.7
2014-Oct-17 05:30N 26°05' W 080°07'0 0.0
2014-Oct-17 04:30N 26°05' W 080°07'0 0.0
2014-Oct-17 03:33N 26°05' W 080°07'0 0.0
2014-Oct-17 02:33N 26°05' W 080°07'0 0.0
2014-Oct-17 01:33N 26°05' W 080°07'0 0.0
2014-Oct-17 00:33N 26°05' W 080°07'1 0.9
2014-Oct-16 23:34N 26°06' W 080°07'9 9.4
2014-Oct-16 22:33N 25°57' W 080°02'  
Track history (hours):
 
Tides and Currents Weather Stations Pressure Air Temp Water Temp Dewpoint Dewpoint Depression Visibility Wind Speed Wind Dir Waves Ship Positions

Dole Colombia

Last reported at 2014-Oct-20 20:32 UTC. Time now 2014-Oct-20 21:09 UTC.
Position N 39°43' W 075°31'.

Length 205 m; draft 9.7 m.

Type: Ship. MMSI: 309403000.

Date/timePositionNaut miles runAvg speedWind from/ knotsBaromVisibWave heightAir tempDewpointWater temp
2014-Oct-20 20:32N 39°43' W 075°31'0 0.0
2014-Oct-20 19:32N 39°43' W 075°31'0 0.0
2014-Oct-20 18:32N 39°43' W 075°31'0 0.0
2014-Oct-20 17:32N 39°43' W 075°31'0 0.0
2014-Oct-20 16:32N 39°43' W 075°31'0 0.0
2014-Oct-20 15:32N 39°43' W 075°31'0 0.0
2014-Oct-20 14:32N 39°43' W 075°31'0 0.0
2014-Oct-20 13:32N 39°43' W 075°31'0 0.0
2014-Oct-20 12:32N 39°43' W 075°31'0 0.0
2014-Oct-20 11:32N 39°43' W 075°31'0 0.0
2014-Oct-20 10:32N 39°43' W 075°31'0 0.0
2014-Oct-20 09:29N 39°43' W 075°31'0 0.0
2014-Oct-20 08:32N 39°43' W 075°31'0 0.0
2014-Oct-20 07:32N 39°43' W 075°31'0 0.0
2014-Oct-20 06:32N 39°43' W 075°31'0 0.0
2014-Oct-20 05:32N 39°43' W 075°31'0 0.0
2014-Oct-20 04:32N 39°43' W 075°31'0 0.0
2014-Oct-20 03:32N 39°43' W 075°31'0 0.0
2014-Oct-20 02:32N 39°43' W 075°31'0 0.0
2014-Oct-20 01:32N 39°43' W 075°31'0 0.0
2014-Oct-20 00:32N 39°43' W 075°31'0 0.0
2014-Oct-19 23:32N 39°43' W 075°31'0 0.0
2014-Oct-19 22:32N 39°43' W 075°31'0 0.0
2014-Oct-19 21:32N 39°43' W 075°31'0 0.0
2014-Oct-19 20:32N 39°43' W 075°31'0 0.0
2014-Oct-19 19:32N 39°43' W 075°31'0 0.0
2014-Oct-19 18:32N 39°43' W 075°31'0 0.0
2014-Oct-19 17:32N 39°43' W 075°31'0 0.0
2014-Oct-19 16:32N 39°43' W 075°31'0 0.0
2014-Oct-19 15:32N 39°43' W 075°31'0 0.0
2014-Oct-19 14:32N 39°43' W 075°31'0 0.0
2014-Oct-19 13:32N 39°43' W 075°31'0 0.0
2014-Oct-19 12:32N 39°43' W 075°31'0 0.0
2014-Oct-19 11:32N 39°43' W 075°31'0 0.0
2014-Oct-19 10:29N 39°43' W 075°31'0 0.0
2014-Oct-19 09:33N 39°43' W 075°31'7 7.0
2014-Oct-19 08:33N 39°37' W 075°35'1312.6
2014-Oct-19 07:33N 39°24' W 075°30'77116.8
2014-Oct-17 09:33N 27°03' W 079°45'2120.0
2014-Oct-17 08:30N 26°42' W 079°48'1819.4
2014-Oct-17 07:33N 26°25' W 079°55'1918.6
2014-Oct-17 06:33N 26°08' W 080°02'5 4.7
2014-Oct-17 05:30N 26°05' W 080°07'0 0.0
2014-Oct-17 04:30N 26°05' W 080°07'0 0.0
2014-Oct-17 03:33N 26°05' W 080°07'0 0.0
2014-Oct-17 02:33N 26°05' W 080°07'0 0.0
2014-Oct-17 01:33N 26°05' W 080°07'0 0.0
2014-Oct-17 00:33N 26°05' W 080°07'1 0.9
2014-Oct-16 23:34N 26°06' W 080°07'9 9.4
2014-Oct-16 22:33N 25°57' W 080°02'  

Dump ship's entire track history